Santo Pekoa International Airport
NVSS : rendu visible

Aérodrome :











RETROUVEZ-NOUS SUR...

 
LOGIN :

S'inscrire | Disclaimer

   EN    FR    IT 

 









Légende :    VFR   VFR Marginal   IFR   IFR Intensif   IFR Très Intensif
Visi : 
Plafond : 
>= 8 km
>= 3000ft
5 à 8 km
1000 à 3000 ft
1500m à 5 km
500 à 1000 ft
800 à 1500m
200 à 500 ft
< 800m
< 200 ft
Symboles :   Orages  Brouillard  Fortes neiges  Fortes précipitations  Vent > 20 kt






- Altitude de l'aérodrome : 184 ft
- Code IATA : SON


NVSS - Santo Pekoa International

DERNIER METAR :
  • 310100Z 11002KT 9999 SCT018 BKN040 28/24 Q1014

METARs EXPIRÉS :
  • 310000Z 11005KT 9999 FEW012 BKN018 28/25 Q1015
  • 302300Z 12005KT 9999 FEW012 BKN018 28/25 Q1015

TAF TAF NVSS
Valide du 31 à 00h jusqu'au 01 à 00h UTC


302220Z 3100/3124 15007KT 9999 SCT020 BKN110 INTER 3100/3106 9000 -SHRA BKN018
FIR NFFF / Océanie



MET'MAP, la Météo Aéronautique d'un coup d'oeil ! - Copyright ORBIFLY Décembre 2007 - Disclaimer

ORBIFLY MET'MAP TEAM :

Programmation & Développement : Alexandra Zaïnal
Sur une idée originale de : Baudouin d'Aumeries
Assistance à la programmation : Marc-Olivier Méhu
Soutien technique & logistique : Manuel Goepfert

Contact : metmap@orbifly.com




SOURCES & CREDITS :

   NOAA       Earth
Advisory